createdAt,value
2022-12-01T00:01:20.954Z,2.94
2022-12-01T00:03:47.773Z,2.96
2022-12-01T00:06:19.882Z,2.97
2022-12-01T00:09:09.422Z,2.92
2022-12-01T00:11:37.752Z,2.90
2022-12-01T00:14:05.284Z,2.92
2022-12-01T00:16:32.841Z,2.89
2022-12-01T00:18:59.782Z,2.84
2022-12-01T00:21:27.287Z,2.85
2022-12-01T00:23:58.544Z,2.77
2022-12-01T00:26:26.468Z,2.74
2022-12-01T00:28:58.773Z,2.74
2022-12-01T00:31:26.161Z,2.71
2022-12-01T00:33:52.920Z,2.73
2022-12-01T00:36:19.425Z,2.68
2022-12-01T00:38:46.781Z,2.68
2022-12-01T00:41:13.715Z,2.66
2022-12-01T00:43:40.463Z,2.66
2022-12-01T00:46:07.784Z,2.65
2022-12-01T00:48:34.503Z,2.67
2022-12-01T00:51:01.506Z,2.68
2022-12-01T00:53:28.012Z,2.63
2022-12-01T00:55:54.748Z,2.60
2022-12-01T00:58:21.824Z,2.58
2022-12-01T01:00:49.205Z,2.56
2022-12-01T01:03:16.149Z,2.55
2022-12-01T01:05:43.836Z,2.60
2022-12-01T01:08:15.018Z,2.55
2022-12-01T01:10:43.796Z,2.60
2022-12-01T01:13:11.619Z,2.59
2022-12-01T01:15:38.637Z,2.56
2022-12-01T01:18:05.710Z,2.49
2022-12-01T01:20:32.671Z,2.52
2022-12-01T01:23:00.352Z,2.55
2022-12-01T01:25:26.874Z,2.55
2022-12-01T01:27:53.335Z,2.50
2022-12-01T01:30:20.823Z,2.44
2022-12-01T01:32:47.430Z,2.47
2022-12-01T01:35:13.945Z,2.44
2022-12-01T01:37:40.598Z,2.44
2022-12-01T01:40:07.649Z,2.49
2022-12-01T01:42:34.194Z,2.54
2022-12-01T01:45:00.876Z,2.54
2022-12-01T01:47:34.940Z,2.46
2022-12-01T01:50:10.727Z,2.34
2022-12-01T01:52:43.092Z,2.43
2022-12-01T01:55:10.082Z,2.48
2022-12-01T01:57:37.799Z,2.46
2022-12-01T02:00:30.321Z,2.52
2022-12-01T02:03:00.339Z,2.49
2022-12-01T02:05:34.521Z,2.47
2022-12-01T02:08:02.512Z,2.51
2022-12-01T02:11:07.559Z,2.35
2022-12-01T02:13:45.223Z,2.39
2022-12-01T02:16:39.264Z,2.35
2022-12-01T02:19:38.607Z,2.35
2022-12-01T02:22:52.177Z,2.42
2022-12-01T02:25:48.063Z,2.43
2022-12-01T02:28:40.669Z,2.40
2022-12-01T02:31:20.242Z,2.35
2022-12-01T02:33:56.239Z,2.32
2022-12-01T02:36:35.073Z,2.33
2022-12-01T02:39:06.960Z,2.38
2022-12-01T02:41:43.045Z,2.32
2022-12-01T02:44:19.723Z,2.34
2022-12-01T02:46:52.766Z,2.32
2022-12-01T02:49:25.214Z,2.32
2022-12-01T02:51:57.459Z,2.23
2022-12-01T02:54:25.602Z,2.24
2022-12-01T02:56:55.895Z,2.26
2022-12-01T02:59:24.321Z,2.27
2022-12-01T03:02:02.818Z,2.21
2022-12-01T03:04:35.481Z,2.25
2022-12-01T03:07:16.112Z,2.26
2022-12-01T03:09:51.940Z,2.30
2022-12-01T03:12:36.703Z,2.32
2022-12-01T03:15:42.667Z,2.34
2022-12-01T03:18:18.051Z,2.35
2022-12-01T03:20:54.338Z,2.37
2022-12-01T03:23:25.947Z,2.31
2022-12-01T03:25:55.764Z,2.30
2022-12-01T03:28:28.983Z,2.39
2022-12-01T03:31:03.263Z,2.39
2022-12-01T03:33:40.351Z,2.39
2022-12-01T03:36:19.579Z,2.40
2022-12-01T03:38:52.122Z,2.29
2022-12-01T03:41:25.101Z,2.28
2022-12-01T03:44:08.839Z,2.24
2022-12-01T03:46:54.882Z,2.24
2022-12-01T03:49:24.871Z,2.33
2022-12-01T03:52:31.728Z,2.39
2022-12-01T03:55:18.248Z,2.35
2022-12-01T03:58:01.629Z,2.40
2022-12-01T04:00:29.182Z,2.42
2022-12-01T04:02:57.816Z,2.39
2022-12-01T04:05:25.712Z,2.41
2022-12-01T04:07:53.266Z,2.41
2022-12-01T04:10:19.909Z,2.44
2022-12-01T04:12:46.374Z,2.42
2022-12-01T04:15:14.488Z,2.38
2022-12-01T04:17:45.929Z,2.34
2022-12-01T04:20:20.096Z,2.29
2022-12-01T04:22:46.653Z,2.33
2022-12-01T04:25:13.140Z,2.32
2022-12-01T04:27:40.219Z,2.35
2022-12-01T04:30:07.990Z,2.32
2022-12-01T04:32:44.597Z,2.29
2022-12-01T04:35:12.376Z,2.34
2022-12-01T04:37:44.859Z,2.32
2022-12-01T04:40:11.879Z,2.28
2022-12-01T04:42:38.367Z,2.29
2022-12-01T04:45:05.153Z,2.30
2022-12-01T04:47:31.647Z,2.27
2022-12-01T04:49:58.172Z,2.31
2022-12-01T04:52:24.717Z,2.30
2022-12-01T04:54:51.198Z,2.32
2022-12-01T04:57:20.546Z,2.33
2022-12-01T04:59:47.133Z,2.21
2022-12-01T05:02:13.916Z,2.24
2022-12-01T05:04:41.763Z,2.21
2022-12-01T05:07:08.535Z,2.24
2022-12-01T05:09:35.120Z,2.21
2022-12-01T05:12:01.572Z,2.17
2022-12-01T05:14:31.037Z,2.18
2022-12-01T05:16:58.254Z,2.07
2022-12-01T05:19:46.435Z,2.12
2022-12-01T05:22:13.035Z,2.08
2022-12-01T05:24:39.580Z,2.03
2022-12-01T05:27:09.193Z,2.10
2022-12-01T05:29:38.431Z,2.13
2022-12-01T05:32:05.324Z,2.15
2022-12-01T05:34:31.855Z,2.11
2022-12-01T05:36:58.329Z,2.15
2022-12-01T05:39:27.963Z,2.13
2022-12-01T05:41:57.289Z,2.19
2022-12-01T05:44:23.851Z,2.12
2022-12-01T05:46:53.122Z,2.12
2022-12-01T05:49:19.580Z,2.04
2022-12-01T05:51:46.129Z,2.07
2022-12-01T05:54:12.661Z,2.13
2022-12-01T05:56:39.178Z,2.17
2022-12-01T05:59:08.900Z,2.07
2022-12-01T06:01:35.446Z,1.98
2022-12-01T06:04:02.044Z,2.03
2022-12-01T06:06:28.596Z,2.01
2022-12-01T06:08:55.156Z,2.00
2022-12-01T06:11:22.055Z,2.02
2022-12-01T06:13:48.561Z,1.97
2022-12-01T06:16:18.072Z,1.99
2022-12-01T06:18:44.803Z,2.02
2022-12-01T06:21:11.270Z,1.98
2022-12-01T06:23:38.477Z,1.98
2022-12-01T06:26:07.825Z,1.89
2022-12-01T06:28:34.724Z,1.90
2022-12-01T06:31:03.417Z,1.93
2022-12-01T06:33:31.442Z,1.86
2022-12-01T06:36:03.154Z,1.88
2022-12-01T06:38:35.165Z,1.91
2022-12-01T06:41:05.688Z,1.90
2022-12-01T06:43:32.409Z,1.85
2022-12-01T06:46:03.425Z,1.85
2022-12-01T06:48:30.953Z,1.84
2022-12-01T06:51:01.539Z,1.85
2022-12-01T06:53:28.804Z,1.82
2022-12-01T06:56:00.993Z,1.87
2022-12-01T06:58:28.011Z,1.89
2022-12-01T07:00:55.032Z,1.91
2022-12-01T07:03:24.192Z,1.88
2022-12-01T07:06:01.277Z,1.91
2022-12-01T07:08:29.350Z,1.85
2022-12-01T07:11:00.312Z,1.82
2022-12-01T07:13:32.862Z,1.76
2022-12-01T07:16:00.644Z,1.82
2022-12-01T07:18:28.685Z,1.82
2022-12-01T07:21:05.586Z,1.77
2022-12-01T07:23:32.138Z,1.79
2022-12-01T07:26:14.455Z,1.76
2022-12-01T07:28:41.772Z,1.72
2022-12-01T07:31:15.371Z,1.75
2022-12-01T07:33:42.507Z,1.73
2022-12-01T07:36:13.827Z,1.73
2022-12-01T07:38:40.385Z,1.73
2022-12-01T07:41:20.144Z,1.76
2022-12-01T07:43:48.043Z,1.71
2022-12-01T07:46:23.334Z,1.72
2022-12-01T07:48:51.003Z,1.71
2022-12-01T07:51:17.806Z,1.73
2022-12-01T07:53:49.311Z,1.79
2022-12-01T07:56:19.047Z,1.80
2022-12-01T07:58:45.772Z,1.77
2022-12-01T08:01:19.446Z,1.72
2022-12-01T08:03:48.850Z,1.75
2022-12-01T08:06:16.970Z,1.74
2022-12-01T08:08:43.608Z,1.69
2022-12-01T08:11:13.585Z,1.70
2022-12-01T08:13:41.376Z,1.75
2022-12-01T08:16:10.284Z,1.71
2022-12-01T08:18:38.782Z,1.76
2022-12-01T08:21:06.745Z,1.79
2022-12-01T08:23:35.731Z,1.77
2022-12-01T08:26:06.625Z,1.78
2022-12-01T08:28:36.153Z,1.79
2022-12-01T08:31:17.828Z,1.79
2022-12-01T08:33:44.646Z,1.74
2022-12-01T08:36:11.208Z,1.71
2022-12-01T08:38:38.160Z,1.83
2022-12-01T08:41:07.919Z,1.85
2022-12-01T08:43:57.167Z,1.82
2022-12-01T08:46:28.393Z,1.80
2022-12-01T08:48:58.487Z,1.83
2022-12-01T08:51:25.929Z,1.81
2022-12-01T08:53:52.490Z,1.82
2022-12-01T08:56:34.498Z,1.85
2022-12-01T08:59:01.149Z,1.83
2022-12-01T09:01:28.229Z,1.79
2022-12-01T09:04:05.930Z,1.77
2022-12-01T09:06:37.640Z,1.73
2022-12-01T09:09:04.319Z,1.72
2022-12-01T09:11:30.912Z,1.71
2022-12-01T09:14:02.695Z,1.76
2022-12-01T09:16:31.934Z,1.78
2022-12-01T09:19:05.217Z,1.79
2022-12-01T09:21:34.352Z,1.77
2022-12-01T09:24:02.892Z,1.74
2022-12-01T09:26:30.094Z,1.71
2022-12-01T09:29:01.969Z,1.73
2022-12-01T09:31:28.760Z,1.76
2022-12-01T09:34:06.484Z,1.76
2022-12-01T09:36:37.774Z,1.77
2022-12-01T09:39:09.767Z,1.80
2022-12-01T09:41:42.272Z,1.79
2022-12-01T09:44:37.932Z,1.76
2022-12-01T09:47:14.433Z,1.77
2022-12-01T09:49:49.935Z,1.75
2022-12-01T09:52:19.689Z,1.80
2022-12-01T09:54:47.670Z,1.82
2022-12-01T09:57:39.470Z,1.79
2022-12-01T10:00:21.443Z,1.81
2022-12-01T10:02:56.879Z,1.85
2022-12-01T10:05:29.243Z,1.86
2022-12-01T10:08:00.640Z,1.81
2022-12-01T10:10:34.599Z,1.83
2022-12-01T10:13:01.342Z,1.85
2022-12-01T10:15:51.231Z,1.87
2022-12-01T10:18:36.271Z,1.87
2022-12-01T10:21:16.586Z,1.89
2022-12-01T10:23:58.133Z,1.77
2022-12-01T10:27:11.717Z,1.85
2022-12-01T10:29:50.218Z,1.87
2022-12-01T10:32:58.822Z,1.86
2022-12-01T10:35:29.282Z,1.90
2022-12-01T10:38:01.566Z,1.89
2022-12-01T10:40:35.234Z,1.84
2022-12-01T10:43:02.232Z,1.86
2022-12-01T10:45:34.417Z,1.89
2022-12-01T10:48:26.502Z,1.98
2022-12-01T10:50:55.393Z,1.96
2022-12-01T10:53:36.656Z,1.86
2022-12-01T10:56:12.756Z,1.93
2022-12-01T10:58:45.514Z,1.93
2022-12-01T11:01:19.667Z,1.95
2022-12-01T11:04:10.703Z,1.93
2022-12-01T11:06:37.661Z,1.90
2022-12-01T11:09:20.268Z,1.90
2022-12-01T11:12:02.616Z,1.91
2022-12-01T11:14:47.143Z,1.95
2022-12-01T11:17:24.960Z,2.00
2022-12-01T11:19:54.877Z,2.02
2022-12-01T11:22:28.688Z,1.95
2022-12-01T11:24:55.174Z,1.94
2022-12-01T11:27:34.912Z,1.98
2022-12-01T11:30:06.623Z,1.92
2022-12-01T11:32:37.828Z,1.94
2022-12-01T11:35:26.013Z,1.97
2022-12-01T11:40:51.356Z,1.97
2022-12-01T11:43:27.348Z,2.01
2022-12-01T11:45:55.939Z,2.01
2022-12-01T11:48:25.571Z,2.02
2022-12-01T11:51:07.196Z,2.00
2022-12-01T11:53:38.451Z,1.95
2022-12-01T11:56:29.144Z,1.99
2022-12-01T11:59:17.138Z,1.97
2022-12-01T12:02:02.310Z,2.01
2022-12-01T12:05:02.708Z,2.07
2022-12-01T12:07:44.514Z,1.96
2022-12-01T12:10:53.306Z,1.93
2022-12-01T12:13:40.527Z,2.00
2022-12-01T12:16:12.985Z,2.01
2022-12-01T12:18:45.858Z,2.08
2022-12-01T12:21:12.251Z,2.11
2022-12-01T12:24:16.970Z,2.14
2022-12-01T12:26:58.626Z,2.12
2022-12-01T12:29:56.775Z,2.09
2022-12-01T12:32:42.055Z,2.11
2022-12-01T12:35:30.773Z,2.07
2022-12-01T12:38:15.384Z,2.00
2022-12-01T12:40:47.594Z,2.06
2022-12-01T12:43:36.913Z,2.01
2022-12-01T12:46:11.246Z,1.99
2022-12-01T12:49:03.917Z,2.04
2022-12-01T12:51:36.155Z,1.98
2022-12-01T12:54:21.411Z,1.93
2022-12-01T12:56:53.129Z,1.99
2022-12-01T12:59:24.562Z,2.07
2022-12-01T13:02:04.717Z,2.10
2022-12-01T13:04:37.949Z,2.05
2022-12-01T13:07:28.826Z,2.00
2022-12-01T13:10:02.788Z,1.98
2022-12-01T13:12:39.329Z,1.98
2022-12-01T13:15:13.627Z,1.98
2022-12-01T13:17:44.671Z,2.05
2022-12-01T13:20:18.332Z,2.07
2022-12-01T13:22:49.788Z,2.10
2022-12-01T13:25:24.729Z,2.11
2022-12-01T13:27:56.615Z,2.15
2022-12-01T13:30:24.622Z,2.01
2022-12-01T13:33:03.205Z,2.02
2022-12-01T13:35:39.845Z,2.08
2022-12-01T13:38:20.194Z,2.12
2022-12-01T13:40:49.217Z,2.17
2022-12-01T13:43:20.150Z,2.16
2022-12-01T13:45:48.458Z,2.07
2022-12-01T13:48:51.946Z,2.04
2022-12-01T13:51:18.553Z,2.07
2022-12-01T13:54:01.418Z,2.14
2022-12-01T13:56:45.166Z,2.11
2022-12-01T13:59:50.742Z,2.07
2022-12-01T14:02:21.055Z,2.03
2022-12-01T14:04:51.026Z,2.06
2022-12-01T14:07:29.615Z,2.13
2022-12-01T14:10:06.319Z,2.15
2022-12-01T14:12:37.717Z,2.16
2022-12-01T14:15:42.684Z,2.13
2022-12-01T14:18:18.470Z,2.08
2022-12-01T14:20:49.321Z,1.95
2022-12-01T14:23:29.023Z,1.99
2022-12-01T14:26:21.578Z,1.97
2022-12-01T14:29:00.508Z,1.96
2022-12-01T14:31:33.302Z,1.99
2022-12-01T14:34:24.203Z,2.02
2022-12-01T14:37:02.425Z,1.99
2022-12-01T14:39:32.845Z,1.97
2022-12-01T14:42:46.217Z,1.96
2022-12-01T14:45:17.267Z,1.93
2022-12-01T14:47:50.978Z,1.91
2022-12-01T14:50:31.839Z,1.90
2022-12-01T14:53:15.849Z,1.88
2022-12-01T14:55:50.184Z,1.82
2022-12-01T14:58:29.156Z,1.83
2022-12-01T15:00:59.624Z,1.80
2022-12-01T15:03:32.250Z,1.76
2022-12-01T15:05:58.880Z,1.81
2022-12-01T15:08:58.356Z,1.81
2022-12-01T15:11:25.941Z,1.76
2022-12-01T15:13:56.717Z,1.76
2022-12-01T15:16:40.169Z,1.73
2022-12-01T15:19:33.343Z,1.72
2022-12-01T15:22:05.101Z,1.77
2022-12-01T15:24:33.891Z,1.70
2022-12-01T15:27:04.013Z,1.70
2022-12-01T15:29:49.517Z,1.72
2022-12-01T15:32:18.672Z,1.71
2022-12-01T15:34:49.230Z,1.66
2022-12-01T15:37:19.242Z,1.69
2022-12-01T15:39:49.506Z,1.69
2022-12-01T15:42:25.473Z,1.69
2022-12-01T15:45:01.472Z,1.70
2022-12-01T15:47:46.523Z,1.71
2022-12-01T15:50:31.368Z,1.75
2022-12-01T15:53:01.267Z,1.76
2022-12-01T15:55:33.069Z,1.77
2022-12-01T15:58:07.868Z,1.81
2022-12-01T16:00:35.122Z,1.77
2022-12-01T16:03:02.494Z,1.78
2022-12-01T16:05:32.511Z,1.80
2022-12-01T16:08:16.976Z,1.84
2022-12-01T16:10:43.529Z,1.84
2022-12-01T16:13:34.901Z,1.83
2022-12-01T16:16:19.083Z,1.74
2022-12-01T16:18:54.537Z,1.71
2022-12-01T16:21:21.718Z,1.73
2022-12-01T16:23:48.507Z,1.75
2022-12-01T16:26:18.531Z,1.79
2022-12-01T16:28:45.132Z,1.72
2022-12-01T16:31:19.365Z,1.80
2022-12-01T16:33:46.357Z,1.71
2022-12-01T16:36:15.997Z,1.72
2022-12-01T16:38:42.847Z,1.74
2022-12-01T16:41:18.270Z,1.85
2022-12-01T16:44:12.383Z,1.84
2022-12-01T16:46:36.556Z,1.83
2022-12-01T16:49:03.174Z,1.81
2022-12-01T16:51:54.190Z,1.79
2022-12-01T16:54:16.660Z,1.79
2022-12-01T16:56:43.188Z,1.72
2022-12-01T16:59:09.666Z,1.74
2022-12-01T17:01:36.151Z,1.77
2022-12-01T17:04:07.729Z,1.82
2022-12-01T17:06:38.376Z,1.72
2022-12-01T17:09:05.051Z,1.81
2022-12-01T17:11:32.202Z,1.79
2022-12-01T17:13:59.012Z,1.78
2022-12-01T17:16:25.581Z,1.74
2022-12-01T17:18:55.044Z,1.77
2022-12-01T17:21:21.568Z,1.70
2022-12-01T17:23:48.101Z,1.71
2022-12-01T17:26:17.546Z,1.72
2022-12-01T17:28:46.083Z,1.74
2022-12-01T17:31:12.932Z,1.77
2022-12-01T17:33:39.903Z,1.81
2022-12-01T17:36:10.026Z,1.79
2022-12-01T17:38:41.702Z,1.77
2022-12-01T17:41:13.845Z,1.72
2022-12-01T17:43:40.539Z,1.72
2022-12-01T17:46:09.341Z,1.72
2022-12-01T17:48:41.338Z,1.72
2022-12-01T17:51:08.912Z,1.79
2022-12-01T17:53:37.092Z,1.79
2022-12-01T17:56:13.438Z,1.86
2022-12-01T17:58:40.112Z,1.80
2022-12-01T18:01:12.308Z,1.78
2022-12-01T18:03:39.742Z,1.72
2022-12-01T18:06:06.421Z,1.70
2022-12-01T18:08:36.162Z,1.65
2022-12-01T18:11:07.952Z,1.66
2022-12-01T18:13:39.115Z,1.67
2022-12-01T18:16:11.910Z,1.70
2022-12-01T18:18:38.577Z,1.65
2022-12-01T18:21:06.682Z,1.63
2022-12-01T18:23:36.484Z,1.59
2022-12-01T18:26:13.729Z,1.56
2022-12-01T18:28:42.890Z,1.51
2022-12-01T18:31:11.654Z,1.53
2022-12-01T18:33:44.283Z,1.57
2022-12-01T18:36:16.492Z,1.46
2022-12-01T18:38:43.238Z,1.46
2022-12-01T18:41:09.993Z,1.54
2022-12-01T18:43:37.178Z,1.55
2022-12-01T18:46:04.704Z,1.50
2022-12-01T18:48:31.840Z,1.56
2022-12-01T18:51:05.785Z,1.45
2022-12-01T18:53:33.285Z,1.49
2022-12-01T18:56:10.278Z,1.40
2022-12-01T18:58:39.266Z,1.41
2022-12-01T19:01:27.354Z,1.39
2022-12-01T19:03:58.510Z,1.36
2022-12-01T19:06:26.084Z,1.38
2022-12-01T19:08:53.442Z,1.41
2022-12-01T19:11:20.934Z,1.45
2022-12-01T19:13:52.565Z,1.41
2022-12-01T19:16:20.238Z,1.38
2022-12-01T19:18:47.150Z,1.44
2022-12-01T19:21:16.375Z,1.49
2022-12-01T19:23:43.934Z,1.48
2022-12-01T19:26:13.292Z,1.49
2022-12-01T19:28:42.054Z,1.41
2022-12-01T19:31:11.411Z,1.36
2022-12-01T19:33:38.196Z,1.37
2022-12-01T19:36:07.112Z,1.44
2022-12-01T19:38:33.722Z,1.42
2022-12-01T19:41:00.926Z,1.45
2022-12-01T19:43:27.527Z,1.45
2022-12-01T19:45:54.168Z,1.45
2022-12-01T19:48:20.892Z,1.42
2022-12-01T19:50:47.411Z,1.43
2022-12-01T19:53:15.059Z,1.41
2022-12-01T19:55:41.515Z,1.40
2022-12-01T19:58:08.503Z,1.39
2022-12-01T20:00:35.044Z,1.34
2022-12-01T20:03:01.673Z,1.37
2022-12-01T20:05:28.177Z,1.37
2022-12-01T20:07:54.767Z,1.34
2022-12-01T20:10:21.306Z,1.35
2022-12-01T20:12:47.953Z,1.41
2022-12-01T20:15:15.659Z,1.40
2022-12-01T20:17:43.014Z,1.36
2022-12-01T20:20:11.180Z,1.39
2022-12-01T20:22:38.122Z,1.39
2022-12-01T20:25:06.096Z,1.40
2022-12-01T20:27:32.941Z,1.36
2022-12-01T20:29:59.490Z,1.35
2022-12-01T20:32:26.013Z,1.35
2022-12-01T20:34:52.841Z,1.31
2022-12-01T20:37:19.542Z,1.34
2022-12-01T20:39:48.524Z,1.30
2022-12-01T20:42:15.110Z,1.32
2022-12-01T20:44:41.672Z,1.26
2022-12-01T20:47:08.137Z,1.22
2022-12-01T20:49:34.816Z,1.25
2022-12-01T20:52:01.324Z,1.27
2022-12-01T20:54:29.586Z,1.28
2022-12-01T20:56:57.033Z,1.27
2022-12-01T20:59:24.041Z,1.28
2022-12-01T21:01:50.818Z,1.33
2022-12-01T21:04:17.352Z,1.32
2022-12-01T21:06:43.964Z,1.28
2022-12-01T21:09:11.554Z,1.27
2022-12-01T21:12:06.729Z,1.25
2022-12-01T21:14:36.488Z,1.25
2022-12-01T21:17:14.859Z,1.22
2022-12-01T21:19:52.103Z,1.21
2022-12-01T21:22:20.125Z,1.16
2022-12-01T21:24:51.064Z,1.15
2022-12-01T21:27:20.699Z,1.16
2022-12-01T21:29:48.905Z,1.16
2022-12-01T21:32:19.091Z,1.16
2022-12-01T21:34:47.576Z,1.18
2022-12-01T21:37:23.010Z,1.16
2022-12-01T21:39:56.063Z,1.16
2022-12-01T21:42:29.959Z,1.11
2022-12-01T21:45:00.261Z,1.11
2022-12-01T21:47:38.458Z,1.10
2022-12-01T21:50:14.251Z,1.11
2022-12-01T21:52:42.659Z,1.11
2022-12-01T21:55:15.145Z,1.15
2022-12-01T21:57:44.699Z,1.13
2022-12-01T22:00:30.747Z,1.09
2022-12-01T22:03:09.224Z,1.07
2022-12-01T22:06:01.127Z,1.09
2022-12-01T22:08:35.120Z,1.08
2022-12-01T22:11:24.298Z,1.06
2022-12-01T22:14:09.029Z,1.11
2022-12-01T22:16:40.158Z,1.10
2022-12-01T22:19:33.659Z,1.10
2022-12-01T22:22:14.205Z,1.05
2022-12-01T22:24:52.299Z,0.99
2022-12-01T22:27:27.892Z,1.03
2022-12-01T22:30:00.694Z,1.02
2022-12-01T22:32:31.698Z,1.01
2022-12-01T22:35:14.369Z,1.01
2022-12-01T22:37:46.403Z,1.03
2022-12-01T22:40:39.484Z,0.99
2022-12-01T22:43:57.524Z,1.03
2022-12-01T22:46:25.912Z,1.05
2022-12-01T22:49:01.524Z,1.10
2022-12-01T22:51:42.141Z,0.97
2022-12-01T22:54:14.681Z,0.95
2022-12-01T22:57:03.585Z,0.97
2022-12-01T22:59:38.795Z,1.01
2022-12-01T23:02:24.521Z,0.93
2022-12-01T23:04:59.904Z,0.99
2022-12-01T23:07:42.084Z,0.95
2022-12-01T23:10:28.600Z,0.97
2022-12-01T23:13:05.404Z,0.92
2022-12-01T23:15:44.219Z,0.86
2022-12-01T23:18:16.192Z,0.86
2022-12-01T23:20:43.886Z,0.91
2022-12-01T23:23:25.616Z,0.86
2022-12-01T23:25:52.293Z,0.89
2022-12-01T23:28:19.492Z,0.86
2022-12-01T23:30:49.257Z,0.80
2022-12-01T23:33:21.900Z,0.79
2022-12-01T23:35:51.191Z,0.74
2022-12-01T23:38:29.156Z,0.76
2022-12-01T23:41:00.989Z,0.76
2022-12-01T23:43:30.110Z,0.72
2022-12-01T23:46:10.023Z,0.72
2022-12-01T23:48:42.945Z,0.76
2022-12-01T23:51:23.519Z,0.76
2022-12-01T23:53:51.950Z,0.80
2022-12-01T23:56:24.354Z,0.76
2022-12-01T23:58:56.677Z,0.76
